Station Historical Data
Daily Summary for January 15, 2012 Units:  Both    English   Metric
« Previous Day
Next Day »
Daily Weekly Monthly Yearly Custom
  High: Low: Average:
Temperature: 49.3 °F /  9.6 °C 26.0 °F /  -3.3 °C 37.6 °F /  3.1 °C
Dew Point: 29.6 °F /  -1.3 °C 22.2 °F /  -5.4 °C 25.8 °F /  -3.4 °C
Humidity: 87% 42% 64%
Wind Speed: 9.0mph /  14.5km/h - 3.4mph /  5.5km/h
Wind Gust: 11.0mph /  17.7km/h - -
Wind- - SSE
Pressure: 30.51 in /  1033.1 hPa 30.28 in /  1025.3 hPa -
Precipitation: 0.00 in /  0 mm    
Historical Graphs
 
 
Tabular Data for January 15, 2012
Time Temperature Dew Point Pressure Wind Wind Speed Wind Gust Humidity Rainfall Rate (Hourly) Conditions
00:00 37.2 °F /  2.9 °C 27.6 °F /  -2.4 °C 30.28in /  1025.3hPa NW 3.0mph /  4.8km/h 4.0mph /  6.4km/h 68% 0.00in /  0mm
00:01 37.2 °F /  2.9 °C 27.6 °F /  -2.4 °C 30.28in /  1025.3hPa WNW 2.0mph /  3.2km/h 3.0mph /  4.8km/h 68% 0.00in /  0mm
00:06 37.1 °F /  2.8 °C 27.5 °F /  -2.5 °C 30.28in /  1025.3hPa WNW 3.0mph /  4.8km/h 4.0mph /  6.4km/h 68% 0.00in /  0mm
00:11 37.0 °F /  2.8 °C 27.4 °F /  -2.6 °C 30.29in /  1025.6hPa NNW 3.0mph /  4.8km/h 4.0mph /  6.4km/h 68% 0.00in /  0mm
00:16 36.7 °F /  2.6 °C 27.5 °F /  -2.5 °C 30.29in /  1025.6hPa WNW 3.0mph /  4.8km/h 3.0mph /  4.8km/h 69% 0.00in /  0mm
00:21 36.6 °F /  2.6 °C 27.4 °F /  -2.6 °C 30.29in /  1025.6hPa NW 2.0mph /  3.2km/h 4.0mph /  6.4km/h 69% 0.00in /  0mm
00:26 36.3 °F /  2.4 °C 27.5 °F /  -2.5 °C 30.29in /  1025.6hPa WNW 4.0mph /  6.4km/h 5.0mph /  8km/h 70% 0.00in /  0mm
00:31 36.4 °F /  2.4 °C 27.6 °F /  -2.4 °C 30.30in /  1026hPa WNW 1.0mph /  1.6km/h 5.0mph /  8km/h 70% 0.00in /  0mm
00:36 36.3 °F /  2.4 °C 27.5 °F /  -2.5 °C 30.30in /  1026hPa WNW 3.0mph /  4.8km/h 4.0mph /  6.4km/h 70% 0.00in /  0mm
00:41 36.3 °F /  2.4 °C 27.5 °F /  -2.5 °C 30.30in /  1026hPa WNW 4.0mph /  6.4km/h 4.0mph /  6.4km/h 70% 0.00in /  0mm
00:46 36.1 °F /  2.3 °C 27.3 °F /  -2.6 °C 30.30in /  1026hPa NW 2.0mph /  3.2km/h 5.0mph /  8km/h 70% 0.00in /  0mm
00:51 35.9 °F /  2.2 °C 27.4 °F /  -2.6 °C 30.30in /  1026hPa WNW 2.0mph /  3.2km/h 5.0mph /  8km/h 71% 0.00in /  0mm
00:56 35.6 °F /  2 °C 27.1 °F /  -2.7 °C 30.30in /  1026hPa NW 2.0mph /  3.2km/h 3.0mph /  4.8km/h 71% 0.00in /  0mm
01:01 35.5 °F /  1.9 °C 27.4 °F /  -2.6 °C 30.30in /  1026hPa NW 2.0mph /  3.2km/h 5.0mph /  8km/h 72% 0.00in /  0mm
01:06 35.5 °F /  1.9 °C 27.4 °F /  -2.6 °C 30.30in /  1026hPa NW 2.0mph /  3.2km/h 2.0mph /  3.2km/h 72% 0.00in /  0mm
01:11 35.3 °F /  1.8 °C 27.2 °F /  -2.7 °C 30.30in /  1026hPa NW 2.0mph /  3.2km/h 4.0mph /  6.4km/h 72% 0.00in /  0mm
01:16 34.9 °F /  1.6 °C 27.1 °F /  -2.7 °C 30.30in /  1026hPa NW 2.0mph /  3.2km/h 3.0mph /  4.8km/h 73% 0.00in /  0mm
01:21 34.9 °F /  1.6 °C 27.1 °F /  -2.7 °C 30.30in /  1026hPa NW 2.0mph /  3.2km/h 3.0mph /  4.8km/h 73% 0.00in /  0mm
01:26 34.7 °F /  1.5 °C 27.0 °F /  -2.8 °C 30.31in /  1026.3hPa NW 2.0mph /  3.2km/h 3.0mph /  4.8km/h 73% 0.00in /  0mm
01:31 34.4 °F /  1.3 °C 27.0 °F /  -2.8 °C 30.31in /  1026.3hPa NW 1.0mph /  1.6km/h 2.0mph /  3.2km/h 74% 0.00in /  0mm
01:36 34.1 °F /  1.2 °C 26.7 °F /  -2.9 °C 30.31in /  1026.3hPa Calm     74% 0.00in /  0mm
01:41 33.6 °F /  0.9 °C 26.5 °F /  -3.1 °C 30.32in /  1026.6hPa Calm     75% 0.00in /  0mm
01:46 33.2 °F /  0.7 °C 26.8 °F /  -2.9 °C 30.32in /  1026.6hPa Calm     77% 0.00in /  0mm
01:51 33.1 °F /  0.6 °C 26.7 °F /  -2.9 °C 30.32in /  1026.6hPa Calm     77% 0.00in /  0mm
01:56 32.5 °F /  0.3 °C 26.4 °F /  -3.1 °C 30.33in /  1027hPa Calm     78% 0.00in /  0mm
02:01 32.2 °F /  0.1 °C 26.4 °F /  -3.1 °C 30.33in /  1027hPa Calm     79% 0.00in /  0mm
02:06 32.5 °F /  0.3 °C 26.7 °F /  -2.9 °C 30.33in /  1027hPa NW 3.0mph /  4.8km/h 4.0mph /  6.4km/h 79% 0.00in /  0mm
02:11 32.6 °F /  0.3 °C 25.9 °F /  -3.4 °C 30.33in /  1027hPa NW 3.0mph /  4.8km/h 4.0mph /  6.4km/h 76% 0.00in /  0mm
02:16 32.5 °F /  0.3 °C 25.8 °F /  -3.4 °C 30.33in /  1027hPa NW 2.0mph /  3.2km/h 3.0mph /  4.8km/h 76% 0.00in /  0mm
02:21 32.3 °F /  0.2 °C 25.6 °F /  -3.6 °C 30.33in /  1027hPa NW 1.0mph /  1.6km/h 3.0mph /  4.8km/h 76% 0.00in /  0mm
02:26 32.2 °F /  0.1 °C 25.5 °F /  -3.6 °C 30.33in /  1027hPa NW 4.0mph /  6.4km/h 6.0mph /  9.7km/h 76% 0.00in /  0mm
02:31 32.1 °F /  0.1 °C 25.4 °F /  -3.7 °C 30.33in /  1027hPa NW 3.0mph /  4.8km/h 3.0mph /  4.8km/h 76% 0.00in /  0mm
02:36 32.3 °F /  0.2 °C 25.3 °F /  -3.7 °C 30.33in /  1027hPa NW 6.0mph /  9.7km/h 6.0mph /  9.7km/h 75% 0.00in /  0mm
02:41 32.6 °F /  0.3 °C 25.2 °F /  -3.8 °C 30.34in /  1027.3hPa NW 1.0mph /  1.6km/h 4.0mph /  6.4km/h 74% 0.00in /  0mm
02:46 32.4 °F /  0.2 °C 25.0 °F /  -3.9 °C 30.34in /  1027.3hPa WNW 3.0mph /  4.8km/h 4.0mph /  6.4km/h 74% 0.00in /  0mm
02:51 32.3 °F /  0.2 °C 25.0 °F /  -3.9 °C 30.34in /  1027.3hPa WNW 3.0mph /  4.8km/h 3.0mph /  4.8km/h 74% 0.00in /  0mm
02:57 32.2 °F /  0.1 °C 24.9 °F /  -3.9 °C 30.34in /  1027.3hPa WNW 2.0mph /  3.2km/h 3.0mph /  4.8km/h 74% 0.00in /  0mm
03:02 32.1 °F /  0.1 °C 24.8 °F /  -4 °C 30.35in /  1027.7hPa West 2.0mph /  3.2km/h 2.0mph /  3.2km/h 74% 0.00in /  0mm
03:07 31.9 °F /  -0.1 °C 24.9 °F /  -3.9 °C 30.35in /  1027.7hPa WNW 2.0mph /  3.2km/h 3.0mph /  4.8km/h 75% 0.00in /  0mm
03:11 31.7 °F /  -0.2 °C 24.7 °F /  -4.1 °C 30.35in /  1027.7hPa WSW 1.0mph /  1.6km/h 3.0mph /  4.8km/h 75% 0.00in /  0mm
03:16 31.4 °F /  -0.3 °C 24.7 °F /  -4.1 °C 30.35in /  1027.7hPa WNW 2.0mph /  3.2km/h 2.0mph /  3.2km/h 76% 0.00in /  0mm
03:21 31.4 °F /  -0.3 °C 24.7 °F /  -4.1 °C 30.36in /  1028hPa WNW 1.0mph /  1.6km/h 2.0mph /  3.2km/h 76% 0.00in /  0mm
03:27 31.5 °F /  -0.3 °C 24.5 °F /  -4.2 °C 30.36in /  1028hPa NW 2.0mph /  3.2km/h 4.0mph /  6.4km/h 75% 0.00in /  0mm
03:32 31.4 °F /  -0.3 °C 24.4 °F /  -4.2 °C 30.36in /  1028hPa NNW 2.0mph /  3.2km/h 3.0mph /  4.8km/h 75% 0.00in /  0mm
03:37 31.3 °F /  -0.4 °C 24.3 °F /  -4.3 °C 30.36in /  1028hPa NNW 2.0mph /  3.2km/h 3.0mph /  4.8km/h 75% 0.00in /  0mm
03:42 31.1 °F /  -0.5 °C 24.1 °F /  -4.4 °C 30.36in /  1028hPa North 3.0mph /  4.8km/h 4.0mph /  6.4km/h 75% 0.00in /  0mm
03:47 30.8 °F /  -0.7 °C 23.8 °F /  -4.6 °C 30.36in /  1028hPa NNW 4.0mph /  6.4km/h 4.0mph /  6.4km/h 75% 0.00in /  0mm
03:52 30.6 °F /  -0.8 °C 24.0 °F /  -4.4 °C 30.36in /  1028hPa North 4.0mph /  6.4km/h 5.0mph /  8km/h 76% 0.00in /  0mm
03:57 30.5 °F /  -0.8 °C 23.9 °F /  -4.5 °C 30.36in /  1028hPa NNW 3.0mph /  4.8km/h 4.0mph /  6.4km/h 76% 0.00in /  0mm
04:02 30.4 °F /  -0.9 °C 23.8 °F /  -4.6 °C 30.36in /  1028hPa North 3.0mph /  4.8km/h 6.0mph /  9.7km/h 76% 0.00in /  0mm
04:07 30.4 °F /  -0.9 °C 23.8 °F /  -4.6 °C 30.37in /  1028.3hPa NNW 4.0mph /  6.4km/h 4.0mph /  6.4km/h 76% 0.00in /  0mm
04:12 30.4 °F /  -0.9 °C 23.8 °F /  -4.6 °C 30.37in /  1028.3hPa North 3.0mph /  4.8km/h 4.0mph /  6.4km/h 76% 0.00in /  0mm
04:17 30.2 °F /  -1 °C 23.6 °F /  -4.7 °C 30.37in /  1028.3hPa North 3.0mph /  4.8km/h 4.0mph /  6.4km/h 76% 0.00in /  0mm
04:22 29.9 °F /  -1.2 °C 23.3 °F /  -4.8 °C 30.37in /  1028.3hPa North 3.0mph /  4.8km/h 3.0mph /  4.8km/h 76% 0.00in /  0mm
04:27 29.7 °F /  -1.3 °C 23.4 °F /  -4.8 °C 30.37in /  1028.3hPa North 4.0mph /  6.4km/h 5.0mph /  8km/h 77% 0.00in /  0mm
04:32 29.6 °F /  -1.3 °C 23.3 °F /  -4.8 °C 30.37in /  1028.3hPa NNW 4.0mph /  6.4km/h 4.0mph /  6.4km/h 77% 0.00in /  0mm
04:37 29.4 °F /  -1.4 °C 23.1 °F /  -4.9 °C 30.37in /  1028.3hPa NNW 3.0mph /  4.8km/h 5.0mph /  8km/h 77% 0.00in /  0mm
04:42 29.2 °F /  -1.6 °C 22.9 °F /  -5.1 °C 30.37in /  1028.3hPa NNE 3.0mph /  4.8km/h 5.0mph /  8km/h 77% 0.00in /  0mm
04:47 29.0 °F /  -1.7 °C 23.0 °F /  -5 °C 30.37in /  1028.3hPa NNW 3.0mph /  4.8km/h 4.0mph /  6.4km/h 78% 0.00in /  0mm
04:52 29.0 °F /  -1.7 °C 23.0 °F /  -5 °C 30.37in /  1028.3hPa North 3.0mph /  4.8km/h 4.0mph /  6.4km/h 78% 0.00in /  0mm
04:57 28.8 °F /  -1.8 °C 22.8 °F /  -5.1 °C 30.37in /  1028.3hPa NNW 3.0mph /  4.8km/h 4.0mph /  6.4km/h 78% 0.00in /  0mm
05:02 28.6 °F /  -1.9 °C 22.6 °F /  -5.2 °C 30.37in /  1028.3hPa NNW 2.0mph /  3.2km/h 4.0mph /  6.4km/h 78% 0.00in /  0mm
05:07 28.6 °F /  -1.9 °C 22.6 °F /  -5.2 °C 30.37in /  1028.3hPa North 5.0mph /  8km/h 5.0mph /  8km/h 78% 0.00in /  0mm
05:12 28.5 °F /  -1.9 °C 22.8 °F /  -5.1 °C 30.37in /  1028.3hPa NNW 5.0mph /  8km/h 6.0mph /  9.7km/h 79% 0.00in /  0mm
05:17 28.5 °F /  -1.9 °C 22.8 °F /  -5.1 °C 30.37in /  1028.3hPa NNW 3.0mph /  4.8km/h 5.0mph /  8km/h 79% 0.00in /  0mm
05:22 28.5 °F /  -1.9 °C 23.1 °F /  -4.9 °C 30.37in /  1028.3hPa North 3.0mph /  4.8km/h 4.0mph /  6.4km/h 80% 0.00in /  0mm
05:27 28.4 °F /  -2 °C 23.0 °F /  -5 °C 30.37in /  1028.3hPa NNE 5.0mph /  8km/h 5.0mph /  8km/h 80% 0.00in /  0mm
05:32 28.6 °F /  -1.9 °C 22.9 °F /  -5.1 °C 30.37in /  1028.3hPa NNE 4.0mph /  6.4km/h 5.0mph /  8km/h 79% 0.00in /  0mm
05:37 28.5 °F /  -1.9 °C 23.1 °F /  -4.9 °C 30.37in /  1028.3hPa NNE 4.0mph /  6.4km/h 5.0mph /  8km/h 80% 0.00in /  0mm
05:42 28.5 °F /  -1.9 °C 23.1 °F /  -4.9 °C 30.37in /  1028.3hPa North 3.0mph /  4.8km/h 6.0mph /  9.7km/h 80% 0.00in /  0mm
05:47 28.5 °F /  -1.9 °C 23.1 °F /  -4.9 °C 30.38in /  1028.7hPa NNW 3.0mph /  4.8km/h 5.0mph /  8km/h 80% 0.00in /  0mm
05:52 28.5 °F /  -1.9 °C 23.1 °F /  -4.9 °C 30.38in /  1028.7hPa Calm   4.0mph /  6.4km/h 80% 0.00in /  0mm
05:57 28.4 °F /  -2 °C 23.3 °F /  -4.8 °C 30.39in /  1029hPa NE 2.0mph /  3.2km/h 2.0mph /  3.2km/h 81% 0.00in /  0mm
06:02 28.3 °F /  -2.1 °C 23.2 °F /  -4.9 °C 30.39in /  1029hPa NE 1.0mph /  1.6km/h 2.0mph /  3.2km/h 81% 0.00in /  0mm
06:07 28.1 °F /  -2.2 °C 23.0 °F /  -5 °C 30.39in /  1029hPa NNE 2.0mph /  3.2km/h 2.0mph /  3.2km/h 81% 0.00in /  0mm
06:12 28.0 °F /  -2.2 °C 22.9 °F /  -5.1 °C 30.40in /  1029.3hPa Calm   1.0mph /  1.6km/h 81% 0.00in /  0mm
06:17 27.6 °F /  -2.4 °C 22.8 °F /  -5.1 °C 30.40in /  1029.3hPa Calm     82% 0.00in /  0mm
06:22 27.4 °F /  -2.6 °C 22.9 °F /  -5.1 °C 30.41in /  1029.7hPa Calm     83% 0.00in /  0mm
06:27 27.3 °F /  -2.6 °C 23.1 °F /  -4.9 °C 30.41in /  1029.7hPa NNE 2.0mph /  3.2km/h 2.0mph /  3.2km/h 84% 0.00in /  0mm
06:32 27.0 °F /  -2.8 °C 22.5 °F /  -5.3 °C 30.42in /  1030hPa Calm   1.0mph /  1.6km/h 83% 0.00in /  0mm
06:37 26.5 °F /  -3.1 °C 22.3 °F /  -5.4 °C 30.42in /  1030hPa Calm     84% 0.00in /  0mm
06:42 26.1 °F /  -3.3 °C 22.2 °F /  -5.4 °C 30.42in /  1030hPa Calm     85% 0.00in /  0mm
06:48 26.0 °F /  -3.3 °C 22.4 °F /  -5.3 °C 30.42in /  1030hPa SSW 1.0mph /  1.6km/h 1.0mph /  1.6km/h 86% 0.00in /  0mm
06:53 26.0 °F /  -3.3 °C 22.4 °F /  -5.3 °C 30.42in /  1030hPa Calm   1.0mph /  1.6km/h 86% 0.00in /  0mm
06:58 26.1 °F /  -3.3 °C 22.8 °F /  -5.1 °C 30.42in /  1030hPa Calm     87% 0.00in /  0mm
07:03 26.5 °F /  -3.1 °C 22.9 °F /  -5.1 °C 30.42in /  1030hPa NE 1.0mph /  1.6km/h 2.0mph /  3.2km/h 86% 0.00in /  0mm
07:08 26.9 °F /  -2.8 °C 22.7 °F /  -5.2 °C 30.42in /  1030hPa NNE 1.0mph /  1.6km/h 2.0mph /  3.2km/h 84% 0.00in /  0mm
07:13 27.3 °F /  -2.6 °C 22.8 °F /  -5.1 °C 30.42in /  1030hPa NNE 2.0mph /  3.2km/h 3.0mph /  4.8km/h 83% 0.00in /  0mm
07:18 27.3 °F /  -2.6 °C 22.8 °F /  -5.1 °C 30.42in /  1030hPa NNE 2.0mph /  3.2km/h 3.0mph /  4.8km/h 83% 0.00in /  0mm
07:23 27.0 °F /  -2.8 °C 22.5 °F /  -5.3 °C 30.42in /  1030hPa Calm   2.0mph /  3.2km/h 83% 0.00in /  0mm
07:28 26.8 °F /  -2.9 °C 22.6 °F /  -5.2 °C 30.42in /  1030hPa NNE 2.0mph /  3.2km/h 3.0mph /  4.8km/h 84% 0.00in /  0mm
07:33 27.0 °F /  -2.8 °C 22.8 °F /  -5.1 °C 30.42in /  1030hPa NNE 2.0mph /  3.2km/h 3.0mph /  4.8km/h 84% 0.00in /  0mm
07:38 27.0 °F /  -2.8 °C 22.8 °F /  -5.1 °C 30.43in /  1030.4hPa NNE 2.0mph /  3.2km/h 2.0mph /  3.2km/h 84% 0.00in /  0mm
07:43 27.0 °F /  -2.8 °C 22.5 °F /  -5.3 °C 30.43in /  1030.4hPa NE 2.0mph /  3.2km/h 2.0mph /  3.2km/h 83% 0.00in /  0mm
07:48 26.8 °F /  -2.9 °C 22.6 °F /  -5.2 °C 30.43in /  1030.4hPa NNE 2.0mph /  3.2km/h 3.0mph /  4.8km/h 84% 0.00in /  0mm
07:53 26.7 °F /  -2.9 °C 22.5 °F /  -5.3 °C 30.44in /  1030.7hPa NE 1.0mph /  1.6km/h 3.0mph /  4.8km/h 84% 0.00in /  0mm
07:58 26.7 °F /  -2.9 °C 22.5 °F /  -5.3 °C 30.43in /  1030.4hPa NE 1.0mph /  1.6km/h 3.0mph /  4.8km/h 84% 0.00in /  0mm
08:03 26.6 °F /  -3 °C 22.4 °F /  -5.3 °C 30.44in /  1030.7hPa Calm   2.0mph /  3.2km/h 84% 0.00in /  0mm
08:08 26.9 °F /  -2.8 °C 22.7 °F /  -5.2 °C 30.44in /  1030.7hPa NNE 2.0mph /  3.2km/h 4.0mph /  6.4km/h 84% 0.00in /  0mm
08:13 27.1 °F /  -2.7 °C 22.6 °F /  -5.2 °C 30.44in /  1030.7hPa NE 2.0mph /  3.2km/h 3.0mph /  4.8km/h 83% 0.00in /  0mm
08:18 27.3 °F /  -2.6 °C 22.8 °F /  -5.1 °C 30.45in /  1031hPa NNE 1.0mph /  1.6km/h 3.0mph /  4.8km/h 83% 0.00in /  0mm
08:23 27.5 °F /  -2.5 °C 22.7 °F /  -5.2 °C 30.45in /  1031hPa NE 2.0mph /  3.2km/h 2.0mph /  3.2km/h 82% 0.00in /  0mm
08:28 27.7 °F /  -2.4 °C 22.6 °F /  -5.2 °C 30.45in /  1031hPa NNE 3.0mph /  4.8km/h 3.0mph /  4.8km/h 81% 0.00in /  0mm
08:34 27.9 °F /  -2.3 °C 22.8 °F /  -5.1 °C 30.45in /  1031hPa NNE 3.0mph /  4.8km/h 3.0mph /  4.8km/h 81% 0.00in /  0mm
08:39 28.0 °F /  -2.2 °C 22.9 °F /  -5.1 °C 30.45in /  1031hPa NNE 2.0mph /  3.2km/h 3.0mph /  4.8km/h 81% 0.00in /  0mm
08:44 28.1 °F /  -2.2 °C 23.0 °F /  -5 °C 30.46in /  1031.4hPa NE 3.0mph /  4.8km/h 3.0mph /  4.8km/h 81% 0.00in /  0mm
08:49 28.4 °F /  -2 °C 23.3 °F /  -4.8 °C 30.46in /  1031.4hPa NNE 1.0mph /  1.6km/h 4.0mph /  6.4km/h 81% 0.00in /  0mm
08:54 28.8 °F /  -1.8 °C 23.4 °F /  -4.8 °C 30.46in /  1031.4hPa NE 3.0mph /  4.8km/h 3.0mph /  4.8km/h 80% 0.00in /  0mm
08:59 29.2 °F /  -1.6 °C 23.8 °F /  -4.6 °C 30.46in /  1031.4hPa NNE 3.0mph /  4.8km/h 4.0mph /  6.4km/h 80% 0.00in /  0mm
09:04 29.6 °F /  -1.3 °C 23.9 °F /  -4.5 °C 30.46in /  1031.4hPa NE 2.0mph /  3.2km/h 5.0mph /  8km/h 79% 0.00in /  0mm
09:09 30.0 °F /  -1.1 °C 24.0 °F /  -4.4 °C 30.46in /  1031.4hPa NNE 4.0mph /  6.4km/h 6.0mph /  9.7km/h 78% 0.00in /  0mm
09:14 30.1 °F /  -1.1 °C 23.8 °F /  -4.6 °C 30.46in /  1031.4hPa NE 7.0mph /  11.3km/h 11.0mph /  17.7km/h 77% 0.00in /  0mm
09:19 30.3 °F /  -0.9 °C 24.0 °F /  -4.4 °C 30.46in /  1031.4hPa NNE 8.0mph /  12.9km/h 9.0mph /  14.5km/h 77% 0.00in /  0mm
09:24 30.5 °F /  -0.8 °C 23.9 °F /  -4.5 °C 30.46in /  1031.4hPa NNE 4.0mph /  6.4km/h 7.0mph /  11.3km/h 76% 0.00in /  0mm
09:29 30.8 °F /  -0.7 °C 23.8 °F /  -4.6 °C 30.46in /  1031.4hPa NE 6.0mph /  9.7km/h 7.0mph /  11.3km/h 75% 0.00in /  0mm
09:34 31.0 °F /  -0.6 °C 24.0 °F /  -4.4 °C 30.47in /  1031.7hPa NE 4.0mph /  6.4km/h 8.0mph /  12.9km/h 75% 0.00in /  0mm
09:39 31.3 °F /  -0.4 °C 23.7 °F /  -4.6 °C 30.47in /  1031.7hPa ENE 4.0mph /  6.4km/h 8.0mph /  12.9km/h 73% 0.00in /  0mm
09:44 31.5 °F /  -0.3 °C 23.9 °F /  -4.5 °C 30.48in /  1032.1hPa ENE 2.0mph /  3.2km/h 7.0mph /  11.3km/h 73% 0.00in /  0mm
09:49 32.0 °F /  0 °C 24.3 °F /  -4.3 °C 30.48in /  1032.1hPa East 5.0mph /  8km/h 6.0mph /  9.7km/h 73% 0.00in /  0mm
09:54 32.2 °F /  0.1 °C 23.9 °F /  -4.5 °C 30.48in /  1032.1hPa East 3.0mph /  4.8km/h 8.0mph /  12.9km/h 71% 0.00in /  0mm
09:59 32.5 °F /  0.3 °C 24.2 °F /  -4.3 °C 30.48in /  1032.1hPa East 5.0mph /  8km/h 7.0mph /  11.3km/h 71% 0.00in /  0mm
10:04 32.8 °F /  0.4 °C 24.1 °F /  -4.4 °C 30.48in /  1032.1hPa East 6.0mph /  9.7km/h 10.0mph /  16.1km/h 70% 0.00in /  0mm
10:09 32.9 °F /  0.5 °C 24.2 °F /  -4.3 °C 30.48in /  1032.1hPa ENE 4.0mph /  6.4km/h 6.0mph /  9.7km/h 70% 0.00in /  0mm
10:14 33.1 °F /  0.6 °C 24.4 °F /  -4.2 °C 30.49in /  1032.4hPa East 4.0mph /  6.4km/h 5.0mph /  8km/h 70% 0.00in /  0mm
10:19 33.8 °F /  1 °C 25.7 °F /  -3.5 °C 30.49in /  1032.4hPa SSE 2.0mph /  3.2km/h 4.0mph /  6.4km/h 72% 0.00in /  0mm
10:24 34.1 °F /  1.2 °C 25.0 °F /  -3.9 °C 30.49in /  1032.4hPa East 4.0mph /  6.4km/h 5.0mph /  8km/h 69% 0.00in /  0mm
10:29 34.0 °F /  1.1 °C 23.9 °F /  -4.5 °C 30.49in /  1032.4hPa East 4.0mph /  6.4km/h 8.0mph /  12.9km/h 66% 0.00in /  0mm
10:34 34.2 °F /  1.2 °C 24.8 °F /  -4 °C 30.50in /  1032.7hPa ENE 6.0mph /  9.7km/h 6.0mph /  9.7km/h 68% 0.00in /  0mm
10:39 34.6 °F /  1.4 °C 24.8 °F /  -4 °C 30.50in /  1032.7hPa East 5.0mph /  8km/h 6.0mph /  9.7km/h 67% 0.00in /  0mm
10:44 35.0 °F /  1.7 °C 25.2 °F /  -3.8 °C 30.50in /  1032.7hPa ESE 4.0mph /  6.4km/h 4.0mph /  6.4km/h 67% 0.00in /  0mm
10:50 35.4 °F /  1.9 °C 24.8 °F /  -4 °C 30.51in /  1033.1hPa SE 4.0mph /  6.4km/h 6.0mph /  9.7km/h 65% 0.00in /  0mm
10:55 35.5 °F /  1.9 °C 24.5 °F /  -4.2 °C 30.50in /  1032.7hPa East 3.0mph /  4.8km/h 5.0mph /  8km/h 64% 0.00in /  0mm
11:00 35.9 °F /  2.2 °C 24.9 °F /  -3.9 °C 30.50in /  1032.7hPa ENE 6.0mph /  9.7km/h 6.0mph /  9.7km/h 64% 0.00in /  0mm
11:05 36.1 °F /  2.3 °C 25.1 °F /  -3.8 °C 30.50in /  1032.7hPa ESE 5.0mph /  8km/h 6.0mph /  9.7km/h 64% 0.00in /  0mm
11:10 36.4 °F /  2.4 °C 25.0 °F /  -3.9 °C 30.50in /  1032.7hPa South 4.0mph /  6.4km/h 7.0mph /  11.3km/h 63% 0.00in /  0mm
11:15 36.9 °F /  2.7 °C 25.1 °F /  -3.8 °C 30.50in /  1032.7hPa ENE 4.0mph /  6.4km/h 8.0mph /  12.9km/h 62% 0.00in /  0mm
11:20 37.0 °F /  2.8 °C 25.2 °F /  -3.8 °C 30.50in /  1032.7hPa East 6.0mph /  9.7km/h 9.0mph /  14.5km/h 62% 0.00in /  0mm
11:25 37.0 °F /  2.8 °C 24.8 °F /  -4 °C 30.50in /  1032.7hPa SE 3.0mph /  4.8km/h 5.0mph /  8km/h 61% 0.00in /  0mm
11:30 37.4 °F /  3 °C 25.2 °F /  -3.8 °C 30.50in /  1032.7hPa East 6.0mph /  9.7km/h 8.0mph /  12.9km/h 61% 0.00in /  0mm
11:35 37.8 °F /  3.2 °C 25.6 °F /  -3.6 °C 30.49in /  1032.4hPa East 4.0mph /  6.4km/h 5.0mph /  8km/h 61% 0.00in /  0mm
11:40 38.2 °F /  3.4 °C 25.1 °F /  -3.8 °C 30.49in /  1032.4hPa ESE 8.0mph /  12.9km/h 8.0mph /  12.9km/h 59% 0.00in /  0mm
11:45 38.2 °F /  3.4 °C 25.1 °F /  -3.8 °C 30.49in /  1032.4hPa SE 4.0mph /  6.4km/h 5.0mph /  8km/h 59% 0.00in /  0mm
11:50 38.6 °F /  3.7 °C 26.3 °F /  -3.2 °C 30.49in /  1032.4hPa SE 3.0mph /  4.8km/h 5.0mph /  8km/h 61% 0.00in /  0mm
11:55 39.1 °F /  3.9 °C 26.8 °F /  -2.9 °C 30.49in /  1032.4hPa East 3.0mph /  4.8km/h 6.0mph /  9.7km/h 61% 0.00in /  0mm
12:00 39.0 °F /  3.9 °C 25.5 °F /  -3.6 °C 30.48in /  1032.1hPa South 1.0mph /  1.6km/h 5.0mph /  8km/h 58% 0.00in /  0mm
12:06 39.4 °F /  4.1 °C 25.9 °F /  -3.4 °C 30.48in /  1032.1hPa SE 6.0mph /  9.7km/h 8.0mph /  12.9km/h 58% 0.00in /  0mm
12:11 39.7 °F /  4.3 °C 26.1 °F /  -3.3 °C 30.47in /  1031.7hPa SSE 5.0mph /  8km/h 8.0mph /  12.9km/h 58% 0.00in /  0mm
12:16 39.9 °F /  4.4 °C 27.2 °F /  -2.7 °C 30.47in /  1031.7hPa SSE 4.0mph /  6.4km/h 6.0mph /  9.7km/h 60% 0.00in /  0mm
12:21 40.4 °F /  4.7 °C 26.4 °F /  -3.1 °C 30.47in /  1031.7hPa South 4.0mph /  6.4km/h 5.0mph /  8km/h 57% 0.00in /  0mm
12:26 40.9 °F /  4.9 °C 26.9 °F /  -2.8 °C 30.47in /  1031.7hPa South 4.0mph /  6.4km/h 6.0mph /  9.7km/h 57% 0.00in /  0mm
12:31 41.3 °F /  5.2 °C 26.8 °F /  -2.9 °C 30.46in /  1031.4hPa SE 5.0mph /  8km/h 6.0mph /  9.7km/h 56% 0.00in /  0mm
12:37 41.7 °F /  5.4 °C 27.2 °F /  -2.7 °C 30.46in /  1031.4hPa South 4.0mph /  6.4km/h 5.0mph /  8km/h 56% 0.00in /  0mm
12:42 42.0 °F /  5.6 °C 27.0 °F /  -2.8 °C 30.45in /  1031hPa East 2.0mph /  3.2km/h 5.0mph /  8km/h 55% 0.00in /  0mm
12:47 41.6 °F /  5.3 °C 26.2 °F /  -3.2 °C 30.45in /  1031hPa SE 2.0mph /  3.2km/h 7.0mph /  11.3km/h 54% 0.00in /  0mm
12:52 42.0 °F /  5.6 °C 27.0 °F /  -2.8 °C 30.45in /  1031hPa WSW 4.0mph /  6.4km/h 8.0mph /  12.9km/h 55% 0.00in /  0mm
12:57 42.4 °F /  5.8 °C 27.4 °F /  -2.6 °C 30.45in /  1031hPa SSE 4.0mph /  6.4km/h 8.0mph /  12.9km/h 55% 0.00in /  0mm
13:02 42.6 °F /  5.9 °C 27.1 °F /  -2.7 °C 30.45in /  1031hPa SSW 7.0mph /  11.3km/h 7.0mph /  11.3km/h 54% 0.00in /  0mm
13:07 43.1 °F /  6.2 °C 28.5 °F /  -1.9 °C 30.45in /  1031hPa SSE 7.0mph /  11.3km/h 8.0mph /  12.9km/h 56% 0.00in /  0mm
13:12 43.3 °F /  6.3 °C 28.2 °F /  -2.1 °C 30.45in /  1031hPa ESE 5.0mph /  8km/h 8.0mph /  12.9km/h 55% 0.00in /  0mm
13:17 43.2 °F /  6.2 °C 27.7 °F /  -2.4 °C 30.45in /  1031hPa SSE 3.0mph /  4.8km/h 6.0mph /  9.7km/h 54% 0.00in /  0mm
13:22 43.4 °F /  6.3 °C 28.3 °F /  -2.1 °C 30.45in /  1031hPa SSE 7.0mph /  11.3km/h 8.0mph /  12.9km/h 55% 0.00in /  0mm
13:27 43.5 °F /  6.4 °C 28.0 °F /  -2.2 °C 30.44in /  1030.7hPa SE 5.0mph /  8km/h 7.0mph /  11.3km/h 54% 0.00in /  0mm
13:32 43.7 °F /  6.5 °C 28.6 °F /  -1.9 °C 30.44in /  1030.7hPa East 4.0mph /  6.4km/h 4.0mph /  6.4km/h 55% 0.00in /  0mm
13:37 43.8 °F /  6.6 °C 27.3 °F /  -2.6 °C 30.43in /  1030.4hPa SE 6.0mph /  9.7km/h 8.0mph /  12.9km/h 52% 0.00in /  0mm
13:42 43.9 °F /  6.6 °C 27.9 °F /  -2.3 °C 30.43in /  1030.4hPa ESE 4.0mph /  6.4km/h 8.0mph /  12.9km/h 53% 0.00in /  0mm
13:48 44.5 °F /  6.9 °C 28.0 °F /  -2.2 °C 30.43in /  1030.4hPa SSE 5.0mph /  8km/h 8.0mph /  12.9km/h 52% 0.00in /  0mm
13:53 44.8 °F /  7.1 °C 27.3 °F /  -2.6 °C 30.43in /  1030.4hPa East 4.0mph /  6.4km/h 7.0mph /  11.3km/h 50% 0.00in /  0mm
13:58 44.8 °F /  7.1 °C 27.8 °F /  -2.3 °C 30.42in /  1030hPa SSE 5.0mph /  8km/h 8.0mph /  12.9km/h 51% 0.00in /  0mm
14:03 45.2 °F /  7.3 °C 28.6 °F /  -1.9 °C 30.42in /  1030hPa SE 2.0mph /  3.2km/h 7.0mph /  11.3km/h 52% 0.00in /  0mm
14:08 45.5 °F /  7.5 °C 28.0 °F /  -2.2 °C 30.42in /  1030hPa South 7.0mph /  11.3km/h 9.0mph /  14.5km/h 50% 0.00in /  0mm
14:13 45.9 °F /  7.7 °C 28.3 °F /  -2.1 °C 30.42in /  1030hPa SSE 5.0mph /  8km/h 8.0mph /  12.9km/h 50% 0.00in /  0mm
14:18 46.0 °F /  7.8 °C 28.9 °F /  -1.7 °C 30.42in /  1030hPa ESE 3.0mph /  4.8km/h 7.0mph /  11.3km/h 51% 0.00in /  0mm
14:23 46.7 °F /  8.2 °C 29.5 °F /  -1.4 °C 30.41in /  1029.7hPa SE 8.0mph /  12.9km/h 8.0mph /  12.9km/h 51% 0.00in /  0mm
14:28 46.5 °F /  8.1 °C 28.9 °F /  -1.7 °C 30.41in /  1029.7hPa East 4.0mph /  6.4km/h 8.0mph /  12.9km/h 50% 0.00in /  0mm
14:33 46.7 °F /  8.2 °C 27.6 °F /  -2.4 °C 30.41in /  1029.7hPa ESE 6.0mph /  9.7km/h 8.0mph /  12.9km/h 47% 0.00in /  0mm
14:38 46.8 °F /  8.2 °C 28.2 °F /  -2.1 °C 30.41in /  1029.7hPa SE 2.0mph /  3.2km/h 7.0mph /  11.3km/h 48% 0.00in /  0mm
14:43 47.0 °F /  8.3 °C 29.3 °F /  -1.5 °C 30.41in /  1029.7hPa East 2.0mph /  3.2km/h 7.0mph /  11.3km/h 50% 0.00in /  0mm
14:48 47.4 °F /  8.6 °C 28.7 °F /  -1.8 °C 30.41in /  1029.7hPa SE 5.0mph /  8km/h 7.0mph /  11.3km/h 48% 0.00in /  0mm
14:53 47.6 °F /  8.7 °C 27.9 °F /  -2.3 °C 30.41in /  1029.7hPa ESE 6.0mph /  9.7km/h 9.0mph /  14.5km/h 46% 0.00in /  0mm
14:58 47.7 °F /  8.7 °C 28.5 °F /  -1.9 °C 30.40in /  1029.3hPa SSE 5.0mph /  8km/h 5.0mph /  8km/h 47% 0.00in /  0mm
15:03 48.3 °F /  9.1 °C 27.4 °F /  -2.6 °C 30.40in /  1029.3hPa SSE 8.0mph /  12.9km/h 8.0mph /  12.9km/h 44% 0.00in /  0mm
15:08 48.5 °F /  9.2 °C 29.2 °F /  -1.6 °C 30.40in /  1029.3hPa SE 4.0mph /  6.4km/h 6.0mph /  9.7km/h 47% 0.00in /  0mm
15:13 48.9 °F /  9.4 °C 29.6 °F /  -1.3 °C 30.40in /  1029.3hPa SSE 4.0mph /  6.4km/h 6.0mph /  9.7km/h 47% 0.00in /  0mm
15:18 48.4 °F /  9.1 °C 27.5 °F /  -2.5 °C 30.40in /  1029.3hPa ESE 4.0mph /  6.4km/h 8.0mph /  12.9km/h 44% 0.00in /  0mm
15:23 48.3 °F /  9.1 °C 26.3 °F /  -3.2 °C 30.40in /  1029.3hPa SSW 6.0mph /  9.7km/h 10.0mph /  16.1km/h 42% 0.00in /  0mm
15:28 48.5 °F /  9.2 °C 27.0 °F /  -2.8 °C 30.40in /  1029.3hPa SE 5.0mph /  8km/h 7.0mph /  11.3km/h 43% 0.00in /  0mm
15:34 48.7 °F /  9.3 °C 27.2 °F /  -2.7 °C 30.40in /  1029.3hPa ESE 4.0mph /  6.4km/h 6.0mph /  9.7km/h 43% 0.00in /  0mm
15:39 48.7 °F /  9.3 °C 26.6 °F /  -3 °C 30.40in /  1029.3hPa ESE 6.0mph /  9.7km/h 8.0mph /  12.9km/h 42% 0.00in /  0mm
15:44 48.8 °F /  9.3 °C 27.3 °F /  -2.6 °C 30.40in /  1029.3hPa SE 6.0mph /  9.7km/h 9.0mph /  14.5km/h 43% 0.00in /  0mm
15:49 48.9 °F /  9.4 °C 26.8 °F /  -2.9 °C 30.40in /  1029.3hPa SE 7.0mph /  11.3km/h 9.0mph /  14.5km/h 42% 0.00in /  0mm
15:54 48.8 °F /  9.3 °C 27.3 °F /  -2.6 °C 30.40in /  1029.3hPa ESE 5.0mph /  8km/h 9.0mph /  14.5km/h 43% 0.00in /  0mm
15:59 48.7 °F /  9.3 °C 27.2 °F /  -2.7 °C 30.40in /  1029.3hPa ESE 6.0mph /  9.7km/h 9.0mph /  14.5km/h 43% 0.00in /  0mm
16:05 48.8 °F /  9.3 °C 27.3 °F /  -2.6 °C 30.40in /  1029.3hPa SE 6.0mph /  9.7km/h 7.0mph /  11.3km/h 43% 0.00in /  0mm
16:10 49.0 °F /  9.4 °C 28.0 °F /  -2.2 °C 30.40in /  1029.3hPa SSE 7.0mph /  11.3km/h 10.0mph /  16.1km/h 44% 0.00in /  0mm
16:15 48.8 °F /  9.3 °C 26.7 °F /  -2.9 °C 30.40in /  1029.3hPa ESE 9.0mph /  14.5km/h 9.0mph /  14.5km/h 42% 0.00in /  0mm
16:20 49.0 °F /  9.4 °C 27.5 °F /  -2.5 °C 30.40in /  1029.3hPa SSE 7.0mph /  11.3km/h 10.0mph /  16.1km/h 43% 0.00in /  0mm
16:25 49.0 °F /  9.4 °C 28.0 °F /  -2.2 °C 30.40in /  1029.3hPa ESE 4.0mph /  6.4km/h 7.0mph /  11.3km/h 44% 0.00in /  0mm
16:30 49.2 °F /  9.6 °C 28.2 °F /  -2.1 °C 30.40in /  1029.3hPa SE 4.0mph /  6.4km/h 7.0mph /  11.3km/h 44% 0.00in /  0mm
16:35 49.2 °F /  9.6 °C 28.8 °F /  -1.8 °C 30.39in /  1029hPa SE 6.0mph /  9.7km/h 8.0mph /  12.9km/h 45% 0.00in /  0mm
16:40 49.3 °F /  9.6 °C 28.3 °F /  -2.1 °C 30.39in /  1029hPa SE 6.0mph /  9.7km/h 7.0mph /  11.3km/h 44% 0.00in /  0mm
16:45 49.3 °F /  9.6 °C 28.3 °F /  -2.1 °C 30.39in /  1029hPa SE 5.0mph /  8km/h 7.0mph /  11.3km/h 44% 0.00in /  0mm
16:50 49.2 °F /  9.6 °C 28.8 °F /  -1.8 °C 30.39in /  1029hPa SE 5.0mph /  8km/h 6.0mph /  9.7km/h 45% 0.00in /  0mm
16:55 49.1 °F /  9.5 °C 27.6 °F /  -2.4 °C 30.39in /  1029hPa SE 6.0mph /  9.7km/h 8.0mph /  12.9km/h 43% 0.00in /  0mm
17:00 49.0 °F /  9.4 °C 28.0 °F /  -2.2 °C 30.39in /  1029hPa SE 7.0mph /  11.3km/h 8.0mph /  12.9km/h 44% 0.00in /  0mm
17:05 48.9 °F /  9.4 °C 28.5 °F /  -1.9 °C 30.39in /  1029hPa SE 4.0mph /  6.4km/h 7.0mph /  11.3km/h 45% 0.00in /  0mm
17:10 48.7 °F /  9.3 °C 27.8 °F /  -2.3 °C 30.39in /  1029hPa SE 4.0mph /  6.4km/h 6.0mph /  9.7km/h 44% 0.00in /  0mm
17:15 48.3 °F /  9.1 °C 27.4 °F /  -2.6 °C 30.39in /  1029hPa SE 5.0mph /  8km/h 8.0mph /  12.9km/h 44% 0.00in /  0mm
17:21 47.9 °F /  8.8 °C 27.0 °F /  -2.8 °C 30.39in /  1029hPa SSE 4.0mph /  6.4km/h 7.0mph /  11.3km/h 44% 0.00in /  0mm
17:26 47.4 °F /  8.6 °C 26.0 °F /  -3.3 °C 30.39in /  1029hPa ESE 6.0mph /  9.7km/h 6.0mph /  9.7km/h 43% 0.00in /  0mm
17:31 47.0 °F /  8.3 °C 26.2 °F /  -3.2 °C 30.39in /  1029hPa SSE 3.0mph /  4.8km/h 6.0mph /  9.7km/h 44% 0.00in /  0mm
17:36 46.4 °F /  8 °C 26.2 °F /  -3.2 °C 30.39in /  1029hPa SE 3.0mph /  4.8km/h 5.0mph /  8km/h 45% 0.00in /  0mm
17:41 45.8 °F /  7.7 °C 26.2 °F /  -3.2 °C 30.39in /  1029hPa SE 3.0mph /  4.8km/h 5.0mph /  8km/h 46% 0.00in /  0mm
17:46 45.3 °F /  7.4 °C 26.3 °F /  -3.2 °C 30.39in /  1029hPa ESE 3.0mph /  4.8km/h 5.0mph /  8km/h 47% 0.00in /  0mm
17:51 44.9 °F /  7.2 °C 25.9 °F /  -3.4 °C 30.38in /  1028.7hPa ESE 4.0mph /  6.4km/h 5.0mph /  8km/h 47% 0.00in /  0mm
17:56 44.6 °F /  7 °C 26.1 °F /  -3.3 °C 30.38in /  1028.7hPa ESE 3.0mph /  4.8km/h 4.0mph /  6.4km/h 48% 0.00in /  0mm
18:01 44.4 °F /  6.9 °C 26.0 °F /  -3.3 °C 30.38in /  1028.7hPa ESE 3.0mph /  4.8km/h 6.0mph /  9.7km/h 48% 0.00in /  0mm
18:06 43.8 °F /  6.6 °C 25.9 °F /  -3.4 °C 30.38in /  1028.7hPa ESE 2.0mph /  3.2km/h 3.0mph /  4.8km/h 49% 0.00in /  0mm
18:11 43.5 °F /  6.4 °C 26.1 °F /  -3.3 °C 30.38in /  1028.7hPa ESE 3.0mph /  4.8km/h 3.0mph /  4.8km/h 50% 0.00in /  0mm
18:16 43.5 °F /  6.4 °C 26.1 °F /  -3.3 °C 30.38in /  1028.7hPa ESE 1.0mph /  1.6km/h 2.0mph /  3.2km/h 50% 0.00in /  0mm
18:21 43.3 °F /  6.3 °C 25.9 °F /  -3.4 °C 30.39in /  1029hPa SE 1.0mph /  1.6km/h 2.0mph /  3.2km/h 50% 0.00in /  0mm
18:26 42.9 °F /  6.1 °C 26.0 °F /  -3.3 °C 30.38in /  1028.7hPa Calm   1.0mph /  1.6km/h 51% 0.00in /  0mm
18:31 42.4 °F /  5.8 °C 26.0 °F /  -3.3 °C 30.39in /  1029hPa Calm   1.0mph /  1.6km/h 52% 0.00in /  0mm
18:37 42.3 °F /  5.7 °C 25.9 °F /  -3.4 °C 30.38in /  1028.7hPa ESE 2.0mph /  3.2km/h 2.0mph /  3.2km/h 52% 0.00in /  0mm
18:42 42.5 °F /  5.8 °C 26.1 °F /  -3.3 °C 30.38in /  1028.7hPa ESE 2.0mph /  3.2km/h 3.0mph /  4.8km/h 52% 0.00in /  0mm
18:47 42.5 °F /  5.8 °C 26.1 °F /  -3.3 °C 30.38in /  1028.7hPa ESE 2.0mph /  3.2km/h 3.0mph /  4.8km/h 52% 0.00in /  0mm
18:52 42.6 °F /  5.9 °C 26.2 °F /  -3.2 °C 30.38in /  1028.7hPa ESE 3.0mph /  4.8km/h 4.0mph /  6.4km/h 52% 0.00in /  0mm
18:57 42.5 °F /  5.8 °C 26.6 °F /  -3 °C 30.37in /  1028.3hPa ESE 2.0mph /  3.2km/h 4.0mph /  6.4km/h 53% 0.00in /  0mm
19:02 42.4 °F /  5.8 °C 26.5 °F /  -3.1 °C 30.38in /  1028.7hPa East 3.0mph /  4.8km/h 3.0mph /  4.8km/h 53% 0.00in /  0mm
19:07 42.0 °F /  5.6 °C 26.6 °F /  -3 °C 30.38in /  1028.7hPa ESE 2.0mph /  3.2km/h 2.0mph /  3.2km/h 54% 0.00in /  0mm
19:12 41.7 °F /  5.4 °C 26.7 °F /  -2.9 °C 30.38in /  1028.7hPa ESE 2.0mph /  3.2km/h 2.0mph /  3.2km/h 55% 0.00in /  0mm
19:17 41.2 °F /  5.1 °C 26.7 °F /  -2.9 °C 30.38in /  1028.7hPa SE 1.0mph /  1.6km/h 1.0mph /  1.6km/h 56% 0.00in /  0mm
19:22 41.1 °F /  5.1 °C 26.6 °F /  -3 °C 30.38in /  1028.7hPa SE 1.0mph /  1.6km/h 2.0mph /  3.2km/h 56% 0.00in /  0mm
19:27 41.3 °F /  5.2 °C 26.8 °F /  -2.9 °C 30.38in /  1028.7hPa ESE 3.0mph /  4.8km/h 4.0mph /  6.4km/h 56% 0.00in /  0mm
19:32 41.6 °F /  5.3 °C 27.1 °F /  -2.7 °C 30.38in /  1028.7hPa ESE 3.0mph /  4.8km/h 5.0mph /  8km/h 56% 0.00in /  0mm
19:37 41.6 °F /  5.3 °C 27.1 °F /  -2.7 °C 30.37in /  1028.3hPa ESE 3.0mph /  4.8km/h 4.0mph /  6.4km/h 56% 0.00in /  0mm
19:42 41.6 °F /  5.3 °C 27.1 °F /  -2.7 °C 30.37in /  1028.3hPa ESE 3.0mph /  4.8km/h 5.0mph /  8km/h 56% 0.00in /  0mm
19:47 41.8 °F /  5.4 °C 27.3 °F /  -2.6 °C 30.37in /  1028.3hPa East 3.0mph /  4.8km/h 5.0mph /  8km/h 56% 0.00in /  0mm
19:52 41.5 °F /  5.3 °C 27.0 °F /  -2.8 °C 30.37in /  1028.3hPa ESE 3.0mph /  4.8km/h 4.0mph /  6.4km/h 56% 0.00in /  0mm
19:57 41.4 °F /  5.2 °C 27.3 °F /  -2.6 °C 30.38in /  1028.7hPa SE 2.0mph /  3.2km/h 3.0mph /  4.8km/h 57% 0.00in /  0mm
20:02 41.4 °F /  5.2 °C 27.3 °F /  -2.6 °C 30.38in /  1028.7hPa SSE 3.0mph /  4.8km/h 4.0mph /  6.4km/h 57% 0.00in /  0mm
20:07 41.7 °F /  5.4 °C 27.6 °F /  -2.4 °C 30.38in /  1028.7hPa SE 3.0mph /  4.8km/h 4.0mph /  6.4km/h 57% 0.00in /  0mm
20:12 42.0 °F /  5.6 °C 27.5 °F /  -2.5 °C 30.38in /  1028.7hPa ESE 5.0mph /  8km/h 6.0mph /  9.7km/h 56% 0.00in /  0mm
20:17 42.4 °F /  5.8 °C 27.4 °F /  -2.6 °C 30.38in /  1028.7hPa ESE 4.0mph /  6.4km/h 6.0mph /  9.7km/h 55% 0.00in /  0mm
20:22 42.6 °F /  5.9 °C 27.6 °F /  -2.4 °C 30.38in /  1028.7hPa ESE 4.0mph /  6.4km/h 4.0mph /  6.4km/h 55% 0.00in /  0mm
20:27 42.4 °F /  5.8 °C 27.4 °F /  -2.6 °C 30.38in /  1028.7hPa ESE 3.0mph /  4.8km/h 5.0mph /  8km/h 55% 0.00in /  0mm
20:33 42.4 °F /  5.8 °C 27.4 °F /  -2.6 °C 30.38in /  1028.7hPa SE 3.0mph /  4.8km/h 5.0mph /  8km/h 55% 0.00in /  0mm
20:38 42.3 °F /  5.7 °C 27.3 °F /  -2.6 °C 30.38in /  1028.7hPa SSE 3.0mph /  4.8km/h 5.0mph /  8km/h 55% 0.00in /  0mm
20:43 42.0 °F /  5.6 °C 27.5 °F /  -2.5 °C 30.38in /  1028.7hPa ESE 5.0mph /  8km/h 5.0mph /  8km/h 56% 0.00in /  0mm
20:48 42.5 °F /  5.8 °C 27.5 °F /  -2.5 °C 30.38in /  1028.7hPa ESE 4.0mph /  6.4km/h 6.0mph /  9.7km/h 55% 0.00in /  0mm
20:53 42.5 °F /  5.8 °C 27.9 °F /  -2.3 °C 30.38in /  1028.7hPa SE 5.0mph /  8km/h 6.0mph /  9.7km/h 56% 0.00in /  0mm
20:58 42.6 °F /  5.9 °C 27.6 °F /  -2.4 °C 30.38in /  1028.7hPa SE 4.0mph /  6.4km/h 7.0mph /  11.3km/h 55% 0.00in /  0mm
21:03 42.8 °F /  6 °C 27.8 °F /  -2.3 °C 30.38in /  1028.7hPa SE 3.0mph /  4.8km/h 6.0mph /  9.7km/h 55% 0.00in /  0mm
21:08 42.7 °F /  5.9 °C 27.7 °F /  -2.4 °C 30.38in /  1028.7hPa SE 4.0mph /  6.4km/h 5.0mph /  8km/h 55% 0.00in /  0mm
21:13 42.8 °F /  6 °C 27.3 °F /  -2.6 °C 30.37in /  1028.3hPa ESE 4.0mph /  6.4km/h 6.0mph /  9.7km/h 54% 0.00in /  0mm
21:18 42.7 °F /  5.9 °C 27.2 °F /  -2.7 °C 30.37in /  1028.3hPa SE 4.0mph /  6.4km/h 6.0mph /  9.7km/h 54% 0.00in /  0mm
21:23 42.7 °F /  5.9 °C 27.2 °F /  -2.7 °C 30.37in /  1028.3hPa SE 3.0mph /  4.8km/h 5.0mph /  8km/h 54% 0.00in /  0mm
21:28 42.3 °F /  5.7 °C 27.3 °F /  -2.6 °C 30.38in /  1028.7hPa SE 5.0mph /  8km/h 5.0mph /  8km/h 55% 0.00in /  0mm
21:33 42.3 °F /  5.7 °C 27.3 °F /  -2.6 °C 30.38in /  1028.7hPa SSE 3.0mph /  4.8km/h 6.0mph /  9.7km/h 55% 0.00in /  0mm
21:39 42.3 °F /  5.7 °C 27.3 °F /  -2.6 °C 30.38in /  1028.7hPa SSE 5.0mph /  8km/h 6.0mph /  9.7km/h 55% 0.00in /  0mm
21:44 42.7 °F /  5.9 °C 27.2 °F /  -2.7 °C 30.38in /  1028.7hPa SE 4.0mph /  6.4km/h 6.0mph /  9.7km/h 54% 0.00in /  0mm
21:49 42.9 °F /  6.1 °C 27.4 °F /  -2.6 °C 30.38in /  1028.7hPa SE 4.0mph /  6.4km/h 7.0mph /  11.3km/h 54% 0.00in /  0mm
21:54 42.8 °F /  6 °C 27.3 °F /  -2.6 °C 30.38in /  1028.7hPa SE 6.0mph /  9.7km/h 6.0mph /  9.7km/h 54% 0.00in /  0mm
22:00 42.8 °F /  6 °C 27.3 °F /  -2.6 °C 30.38in /  1028.7hPa SE 4.0mph /  6.4km/h 6.0mph /  9.7km/h 54% 0.00in /  0mm
22:05 42.9 °F /  6.1 °C 27.0 °F /  -2.8 °C 30.37in /  1028.3hPa ESE 5.0mph /  8km/h 6.0mph /  9.7km/h 53% 0.00in /  0mm
22:10 43.1 °F /  6.2 °C 27.1 °F /  -2.7 °C 30.37in /  1028.3hPa SE 5.0mph /  8km/h 7.0mph /  11.3km/h 53% 0.00in /  0mm
22:15 43.1 °F /  6.2 °C 27.1 °F /  -2.7 °C 30.37in /  1028.3hPa SE 5.0mph /  8km/h 6.0mph /  9.7km/h 53% 0.00in /  0mm
22:20 43.0 °F /  6.1 °C 27.0 °F /  -2.8 °C 30.37in /  1028.3hPa SE 4.0mph /  6.4km/h 8.0mph /  12.9km/h 53% 0.00in /  0mm
22:25 42.4 °F /  5.8 °C 27.4 °F /  -2.6 °C 30.37in /  1028.3hPa SE 4.0mph /  6.4km/h 6.0mph /  9.7km/h 55% 0.00in /  0mm
22:30 42.1 °F /  5.6 °C 27.5 °F /  -2.5 °C 30.37in /  1028.3hPa SE 4.0mph /  6.4km/h 7.0mph /  11.3km/h 56% 0.00in /  0mm
22:35 42.0 °F /  5.6 °C 27.5 °F /  -2.5 °C 30.37in /  1028.3hPa SE 3.0mph /  4.8km/h 6.0mph /  9.7km/h 56% 0.00in /  0mm
22:40 42.0 °F /  5.6 °C 27.5 °F /  -2.5 °C 30.37in /  1028.3hPa SE 3.0mph /  4.8km/h 5.0mph /  8km/h 56% 0.00in /  0mm
22:45 41.8 °F /  5.4 °C 27.3 °F /  -2.6 °C 30.37in /  1028.3hPa SSE 4.0mph /  6.4km/h 7.0mph /  11.3km/h 56% 0.00in /  0mm
22:50 41.9 °F /  5.5 °C 27.4 °F /  -2.6 °C 30.37in /  1028.3hPa SE 4.0mph /  6.4km/h 6.0mph /  9.7km/h 56% 0.00in /  0mm
22:55 42.0 °F /  5.6 °C 27.5 °F /  -2.5 °C 30.37in /  1028.3hPa SE 4.0mph /  6.4km/h 7.0mph /  11.3km/h 56% 0.00in /  0mm
22:57 42.0 °F /  5.6 °C 27.5 °F /  -2.5 °C 30.37in /  1028.3hPa ESE 5.0mph /  8km/h 7.0mph /  11.3km/h 56% 0.00in /  0mm
Compliments of Weather Underground